Aviation Digital Data Service (ADDS)

Output produced by METARs form (0355 UTC 24 June 2021)
found at http://aviationweather.gov/metar/data/
 
METAR text: KSDF 240256Z 13007KT 10SM FEW300 22/10 A3012 RMK AO2 SLP194 T02220100 55003
Conditions at: KSDF (LOUISVILLE , KY, US) observed 0256 UTC 24 June 2021
Temperature: 22.2°C (72°F)
Dewpoint: 10.0°C (50°F) [RH = 46%]
Pressure (altimeter): 30.12 inches Hg (1020.1 mb)
[Sea-level pressure: 1019.4 mb]
Winds: from the SE (130 degrees) at 8 MPH (7 knots; 3.6 m/s)
Visibility: 10 or more miles (16+ km)
Ceiling: at least 12,000 feet AGL
Clouds: few clouds at 30000 feet AGL
Weather: no significant weather observed at this time

METAR text: KSDF 240156Z 12006KT 10SM FEW300 23/10 A3011 RMK AO2 SLP192 T02330100
Conditions at: KSDF (LOUISVILLE , KY, US) observed 0156 UTC 24 June 2021
Temperature: 23.3°C (74°F)
Dewpoint: 10.0°C (50°F) [RH = 43%]
Pressure (altimeter): 30.11 inches Hg (1019.7 mb)
[Sea-level pressure: 1019.2 mb]
Winds: from the ESE (120 degrees) at 7 MPH (6 knots; 3.1 m/s)
Visibility: 10 or more miles (16+ km)
Ceiling: at least 12,000 feet AGL
Clouds: few clouds at 30000 feet AGL
Weather: no significant weather observed at this time

METAR text: KSDF 240056Z 12007KT 10SM FEW250 BKN300 25/10 A3012 RMK AO2 SLP194 T02500100
Conditions at: KSDF (LOUISVILLE , KY, US) observed 0056 UTC 24 June 2021
Temperature: 25.0°C (77°F)
Dewpoint: 10.0°C (50°F) [RH = 39%]
Pressure (altimeter): 30.12 inches Hg (1020.1 mb)
[Sea-level pressure: 1019.4 mb]
Winds: from the ESE (120 degrees) at 8 MPH (7 knots; 3.6 m/s)
Visibility: 10 or more miles (16+ km)
Ceiling: 30000 feet AGL
Clouds: few clouds at 25000 feet AGL
broken clouds at 30000 feet AGL
Weather: no significant weather observed at this time

Forecast for: KSDF (LOUISVILLE , KY, US)
Text: KSDF 232320Z 2400/2506 13005KT P6SM FEW200
Forecast period: 0000 to 1200 UTC 24 June 2021
Forecast type: FROM: standard forecast or significant change
Winds: from the SE (130 degrees) at 6 MPH (5 knots; 2.6 m/s)
Visibility: 6 or more miles (10+ km)
Ceiling: at least 12,000 feet AGL
Clouds: few clouds at 20000 feet AGL
Weather: no significant weather forecast for this period
Text: FM241200 16007KT P6SM SKC
Forecast period: 1200 to 1530 UTC 24 June 2021
Forecast type: FROM: standard forecast or significant change
Winds: from the SSE (160 degrees) at 8 MPH (7 knots; 3.6 m/s)
Visibility: 6 or more miles (10+ km)
Clouds: clear skies
Weather: no significant weather forecast for this period
Text: FM241530 19011G18KT P6SM SCT060
Forecast period: 1530 UTC 24 June 2021 to 0000 UTC 25 June 2021
Forecast type: FROM: standard forecast or significant change
Winds: from the S (190 degrees) at 13 MPH (11 knots; 5.7 m/s)
gusting to 21 MPH (18 knots; 9.3 m/s)
Visibility: 6 or more miles (10+ km)
Ceiling: at least 12,000 feet AGL
Clouds: scattered clouds at 6000 feet AGL
Weather: no significant weather forecast for this period
Text: FM250000 16007KT P6SM FEW200
Forecast period: 0000 to 0600 UTC 25 June 2021
Forecast type: FROM: standard forecast or significant change
Winds: from the SSE (160 degrees) at 8 MPH (7 knots; 3.6 m/s)
Visibility: 6 or more miles (10+ km)
Ceiling: at least 12,000 feet AGL
Clouds: few clouds at 20000 feet AGL
Weather: no significant weather forecast for this period